Time,TemperatureF,DewpointF,PressureIn,WindDirection,WindDirectionDegrees,WindSpeedMPH,WindSpeedGustMPH,Humidity,HourlyPrecipIn,Conditions,Clouds,dailyrainin,SoftwareType,DateUTC
2013-04-05 06:30:00,42.6,38.7,29.62,WNW,288,0.0,0.0,86,0.00,,---,0.00,VWS V13.01,2013-04-05 11:30:00,
2013-04-05 06:31:00,42.6,38.7,29.62,WNW,288,0.0,0.0,86,0.00,,---,0.00,VWS V13.01,2013-04-05 11:31:00,
2013-04-05 06:36:00,42.6,38.7,29.62,WNW,282,0.0,0.0,86,0.00,,---,0.00,VWS V13.01,2013-04-05 11:36:00,
2013-04-05 06:41:00,42.6,38.7,29.62,West,281,0.0,0.0,86,0.00,,---,0.00,VWS V13.01,2013-04-05 11:41:00,
2013-04-05 06:46:00,42.6,38.7,29.62,WNW,299,0.0,0.0,86,0.00,,---,0.00,VWS V13.01,2013-04-05 11:46:00,
2013-04-05 06:51:00,42.8,38.9,29.62,WNW,299,0.0,0.0,86,0.00,,---,0.00,VWS V13.01,2013-04-05 11:51:00,
2013-04-05 06:56:00,42.8,38.9,29.62,WNW,298,0.0,0.0,86,0.00,,---,0.00,VWS V13.01,2013-04-05 11:56:00,
2013-04-05 07:01:00,42.8,38.9,29.62,WNW,293,0.0,0.0,86,0.00,,---,0.00,VWS V13.01,2013-04-05 12:01:00,
2013-04-05 07:06:00,42.8,38.9,29.62,WNW,294,0.0,0.0,86,0.00,,---,0.00,VWS V13.01,2013-04-05 12:06:00,
2013-04-05 07:11:00,42.6,38.7,29.62,WNW,294,0.0,0.0,86,0.00,,---,0.00,VWS V13.01,2013-04-05 12:11:00,
2013-04-05 07:16:00,42.6,38.7,29.62,WNW,293,0.0,0.0,86,0.00,,---,0.00,VWS V13.01,2013-04-05 12:16:00,
2013-04-05 07:21:00,42.8,38.9,29.62,WNW,294,0.0,0.0,86,0.00,,---,0.00,VWS V13.01,2013-04-05 12:21:00,
2013-04-05 07:26:00,42.6,38.7,29.62,WNW,293,0.0,0.0,86,0.00,,---,0.00,VWS V13.01,2013-04-05 12:26:00,
2013-04-05 07:31:00,42.8,38.9,29.62,WNW,294,0.0,0.0,86,0.00,,---,0.00,VWS V13.01,2013-04-05 12:31:00,
2013-04-05 07:36:00,42.8,38.9,29.62,WNW,293,0.0,0.0,86,0.00,,---,0.00,VWS V13.01,2013-04-05 12:36:00,
2013-04-05 07:41:00,43.0,39.1,29.62,WNW,288,0.0,0.0,86,0.00,,---,0.00,VWS V13.01,2013-04-05 12:41:00,
2013-04-05 07:46:00,43.3,39.4,29.62,WNW,285,0.0,0.0,86,0.00,,---,0.00,VWS V13.01,2013-04-05 12:46:00,
2013-04-05 07:51:00,43.7,39.8,29.62,West,270,2.2,2.2,86,0.00,,---,0.00,VWS V13.01,2013-04-05 12:51:00,
2013-04-05 07:56:00,44.1,40.2,29.65,WNW,292,0.0,0.0,86,0.00,,---,0.00,VWS V13.01,2013-04-05 12:56:00,
2013-04-05 08:01:00,44.2,40.3,29.65,West,279,2.7,4.0,86,0.00,,---,0.00,VWS V13.01,2013-04-05 13:01:00,
2013-04-05 08:06:00,44.4,40.5,29.65,West,278,3.6,3.6,86,0.00,,---,0.00,VWS V13.01,2013-04-05 13:06:00,
2013-04-05 08:11:00,44.6,40.4,29.65,WNW,285,2.7,3.1,85,0.00,,---,0.00,VWS V13.01,2013-04-05 13:11:00,
2013-04-05 08:16:00,45.0,40.7,29.65,West,273,0.0,0.0,85,0.00,,---,0.00,VWS V13.01,2013-04-05 13:16:00,
2013-04-05 08:21:00,45.3,40.8,29.65,West,280,2.7,2.7,84,0.00,,---,0.00,VWS V13.01,2013-04-05 13:21:00,
2013-04-05 08:26:00,45.7,41.1,29.65,NW,305,0.0,0.0,84,0.00,,---,0.00,VWS V13.01,2013-04-05 13:26:00,
2013-04-05 08:31:00,46.4,41.8,29.65,NW,312,0.0,0.0,84,0.00,,---,0.00,VWS V13.01,2013-04-05 13:31:00,
2013-04-05 08:36:00,47.1,42.2,29.65,NW,306,0.0,0.0,83,0.00,,---,0.00,VWS V13.01,2013-04-05 13:36:00,
2013-04-05 08:41:00,48.0,42.5,29.65,NW,305,0.0,0.0,81,0.00,,---,0.00,VWS V13.01,2013-04-05 13:41:00,
2013-04-05 08:46:00,48.7,42.2,29.65,West,279,0.0,0.0,78,0.00,,---,0.00,VWS V13.01,2013-04-05 13:46:00,
2013-04-05 08:51:00,49.5,41.9,29.65,North,350,0.0,0.0,75,0.00,,---,0.00,VWS V13.01,2013-04-05 13:51:00,
2013-04-05 08:56:00,50.2,41.9,29.65,NNW,339,0.0,0.0,73,0.00,,---,0.00,VWS V13.01,2013-04-05 13:56:00,
2013-04-05 09:01:00,50.5,41.5,29.65,NNW,339,0.0,0.0,71,0.00,,---,0.00,VWS V13.01,2013-04-05 14:01:00,
2013-04-05 09:06:00,51.3,41.5,29.65,NNW,337,0.0,0.0,69,0.00,,---,0.00,VWS V13.01,2013-04-05 14:06:00,
2013-04-05 09:11:00,51.8,41.6,29.65,NW,323,0.0,0.0,68,0.00,,---,0.00,VWS V13.01,2013-04-05 14:11:00,
2013-04-05 09:16:00,52.3,41.7,29.65,NNW,337,0.0,0.0,67,0.00,,---,0.00,VWS V13.01,2013-04-05 14:16:00,
2013-04-05 09:21:00,52.9,41.5,29.65,WNW,290,3.1,3.1,65,0.00,,---,0.00,VWS V13.01,2013-04-05 14:21:00,
2013-04-05 09:26:00,53.4,41.2,29.65,NW,324,0.0,3.1,63,0.00,,---,0.00,VWS V13.01,2013-04-05 14:26:00,
2013-04-05 09:31:00,54.0,41.2,29.65,NW,312,0.0,3.6,62,0.00,,---,0.00,VWS V13.01,2013-04-05 14:31:00,
2013-04-05 09:36:00,54.7,42.3,29.65,NW,312,0.0,0.0,63,0.00,,---,0.00,VWS V13.01,2013-04-05 14:36:00,
2013-04-05 09:41:00,55.0,39.7,29.65,North,5,2.7,4.0,56,0.00,,---,0.00,VWS V13.01,2013-04-05 14:41:00,
2013-04-05 09:46:00,55.4,39.0,29.65,NNE,19,0.0,2.2,54,0.00,,---,0.00,VWS V13.01,2013-04-05 14:46:00,
2013-04-05 09:51:00,55.8,39.8,29.65,North,7,0.0,0.0,55,0.00,,---,0.00,VWS V13.01,2013-04-05 14:51:00,
2013-04-05 09:56:00,56.1,40.7,29.65,North,7,0.0,0.0,56,0.00,,---,0.00,VWS V13.01,2013-04-05 14:56:00,
2013-04-05 10:01:00,56.8,39.9,29.65,NE,34,5.4,5.4,53,0.00,,---,0.00,VWS V13.01,2013-04-05 15:01:00,
2013-04-05 10:06:00,57.4,39.4,29.65,ENE,57,0.0,5.4,51,0.00,,---,0.00,VWS V13.01,2013-04-05 15:06:00,
2013-04-05 10:11:00,58.1,39.6,29.65,NE,36,3.1,4.9,50,0.00,,---,0.00,VWS V13.01,2013-04-05 15:11:00,
2013-04-05 10:16:00,59.0,41.4,29.65,NNW,341,0.0,3.1,52,0.00,,---,0.00,VWS V13.01,2013-04-05 15:16:00,
2013-04-05 10:21:00,59.7,40.0,29.65,North,0,2.7,4.9,48,0.00,,---,0.00,VWS V13.01,2013-04-05 15:21:00,
2013-04-05 10:27:00,60.4,40.1,29.65,ENE,57,0.0,2.7,47,0.00,,---,0.00,VWS V13.01,2013-04-05 15:27:00,
2013-04-05 10:32:00,61.5,41.1,29.65,NE,53,4.0,4.0,47,0.00,,---,0.00,VWS V13.01,2013-04-05 15:32:00,
2013-04-05 10:37:00,62.4,40.8,29.65,WNW,295,2.7,2.7,45,0.00,,---,0.00,VWS V13.01,2013-04-05 15:37:00,
2013-04-05 10:42:00,63.5,41.2,29.65,West,275,0.0,0.0,44,0.00,,---,0.00,VWS V13.01,2013-04-05 15:42:00,
2013-04-05 10:47:00,64.4,42.0,29.65,WNW,288,0.0,0.0,44,0.00,,---,0.00,VWS V13.01,2013-04-05 15:47:00,
2013-04-05 10:52:00,65.1,42.1,29.65,North,1,3.1,3.1,43,0.00,,---,0.00,VWS V13.01,2013-04-05 15:52:00,
2013-04-05 10:57:00,65.8,42.1,29.65,NW,304,0.0,0.0,42,0.00,,---,0.00,VWS V13.01,2013-04-05 15:57:00,
2013-04-05 11:02:00,66.0,39.0,29.65,NW,304,0.0,0.0,37,0.00,,---,0.00,VWS V13.01,2013-04-05 16:02:00,
2013-04-05 11:07:00,65.8,38.9,29.65,NW,304,0.0,0.0,37,0.00,,---,0.00,VWS V13.01,2013-04-05 16:07:00,
2013-04-05 11:12:00,66.0,39.7,29.65,NW,304,0.0,0.0,38,0.00,,---,0.00,VWS V13.01,2013-04-05 16:12:00,
2013-04-05 11:17:00,66.2,39.2,29.65,WSW,240,0.0,2.2,37,0.00,,---,0.00,VWS V13.01,2013-04-05 16:17:00,
2013-04-05 11:22:00,66.4,39.3,29.65,WNW,297,3.1,3.1,37,0.00,,---,0.00,VWS V13.01,2013-04-05 16:22:00,
2013-04-05 11:27:00,66.7,40.3,29.65,WNW,296,0.0,0.0,38,0.00,,---,0.00,VWS V13.01,2013-04-05 16:27:00,
2013-04-05 11:32:00,67.5,38.9,29.65,NNW,346,0.0,0.0,35,0.00,,---,0.00,VWS V13.01,2013-04-05 16:32:00,
2013-04-05 11:37:00,67.3,39.4,29.65,NNW,343,2.7,2.7,36,0.00,,---,0.00,VWS V13.01,2013-04-05 16:37:00,
2013-04-05 11:42:00,67.5,38.9,29.65,East,81,4.5,4.5,35,0.00,,---,0.00,VWS V13.01,2013-04-05 16:42:00,
2013-04-05 11:47:00,67.8,38.5,29.65,SE,134,3.1,4.0,34,0.00,,---,0.00,VWS V13.01,2013-04-05 16:47:00,
2013-04-05 11:52:00,68.0,39.3,29.65,ESE,110,2.7,2.7,35,0.00,,---,0.00,VWS V13.01,2013-04-05 16:52:00,
2013-04-05 11:57:00,68.0,39.3,29.65,ENE,62,0.0,0.0,35,0.00,,---,0.00,VWS V13.01,2013-04-05 16:57:00,
2013-04-05 12:02:00,68.0,39.3,29.65,SE,145,4.0,4.0,35,0.00,,---,0.00,VWS V13.01,2013-04-05 17:02:00,
2013-04-05 12:07:00,68.0,39.3,29.65,ESE,117,4.9,4.9,35,0.00,,---,0.00,VWS V13.01,2013-04-05 17:07:00,
2013-04-05 12:12:00,68.0,39.3,29.65,East,88,2.2,4.9,35,0.00,,---,0.00,VWS V13.01,2013-04-05 17:12:00,
2013-04-05 12:17:00,68.0,39.3,29.65,East,88,2.2,2.2,35,0.00,,---,0.00,VWS V13.01,2013-04-05 17:17:00,
2013-04-05 12:22:00,68.0,39.3,29.65,NE,56,0.0,0.0,35,0.00,,---,0.00,VWS V13.01,2013-04-05 17:22:00,
2013-04-05 12:27:00,68.0,39.3,29.62,ESE,104,4.9,4.9,35,0.00,,---,0.00,VWS V13.01,2013-04-05 17:27:00,
2013-04-05 12:32:00,68.0,39.3,29.62,ESE,104,4.9,4.9,35,0.00,,---,0.00,VWS V13.01,2013-04-05 17:32:00,
2013-04-05 12:37:00,68.0,39.3,29.62,NE,55,3.6,3.6,35,0.00,,---,0.00,VWS V13.01,2013-04-05 17:37:00,
2013-04-05 12:42:00,68.0,39.3,29.62,South,173,2.7,2.7,35,0.00,,---,0.00,VWS V13.01,2013-04-05 17:42:00,
2013-04-05 12:47:00,68.0,39.3,29.62,SW,214,4.9,4.9,35,0.00,,---,0.00,VWS V13.01,2013-04-05 17:47:00,
2013-04-05 12:52:00,68.0,39.3,29.62,SW,214,4.9,4.9,35,0.00,,---,0.00,VWS V13.01,2013-04-05 17:52:00,
2013-04-05 12:57:00,69.4,39.9,29.62,SSE,153,3.6,3.6,34,0.00,,---,0.00,VWS V13.01,2013-04-05 17:57:00,
2013-04-05 13:02:00,69.4,39.9,29.62,SW,226,5.4,5.4,34,0.00,,---,0.00,VWS V13.01,2013-04-05 18:02:00,
2013-04-05 13:07:00,69.4,39.9,29.62,SW,226,5.4,5.4,34,0.00,,---,0.00,VWS V13.01,2013-04-05 18:07:00,
2013-04-05 13:12:00,69.4,39.9,29.59,SW,236,0.0,0.0,34,0.00,,---,0.00,VWS V13.01,2013-04-05 18:12:00,
2013-04-05 13:17:00,69.4,39.9,29.59,SSW,207,3.1,3.1,34,0.00,,---,0.00,VWS V13.01,2013-04-05 18:17:00,
2013-04-05 13:23:00,69.4,39.9,29.59,SE,129,5.4,5.4,34,0.00,,---,0.00,VWS V13.01,2013-04-05 18:23:00,
2013-04-05 13:28:00,69.4,39.9,29.59,SE,129,5.4,5.4,34,0.00,,---,0.00,VWS V13.01,2013-04-05 18:28:00,
2013-04-05 13:33:00,69.8,40.2,29.59,SE,136,0.0,0.0,34,0.00,,---,0.00,VWS V13.01,2013-04-05 18:33:00,
2013-04-05 13:38:00,69.8,40.2,29.59,SSE,158,4.9,4.9,34,0.00,,---,0.00,VWS V13.01,2013-04-05 18:38:00,
2013-04-05 13:43:00,70.3,39.9,29.59,SSE,158,4.9,4.9,33,0.00,,---,0.00,VWS V13.01,2013-04-05 18:43:00,
2013-04-05 13:48:00,70.3,39.9,29.59,South,176,2.7,2.7,33,0.00,,---,0.00,VWS V13.01,2013-04-05 18:48:00,
2013-04-05 13:53:00,70.3,39.9,29.59,SE,140,0.0,0.0,33,0.00,,---,0.00,VWS V13.01,2013-04-05 18:53:00,
2013-04-05 13:58:00,70.3,39.9,29.59,SSE,148,3.6,3.6,33,0.00,,---,0.00,VWS V13.01,2013-04-05 18:58:00,
2013-04-05 14:03:00,70.3,39.9,29.59,SSE,148,3.6,3.6,33,0.00,,---,0.00,VWS V13.01,2013-04-05 19:03:00,
2013-04-05 14:07:00,70.3,39.9,29.59,SSE,148,3.6,3.6,33,0.00,,---,0.00,VWS V13.01,2013-04-05 19:07:00,
2013-04-05 14:12:00,70.3,39.9,29.59,SSE,148,3.6,3.6,33,0.00,,---,0.00,VWS V13.01,2013-04-05 19:12:00,
2013-04-05 14:17:00,70.3,39.9,29.59,SSE,148,3.6,3.6,33,0.00,,---,0.00,VWS V13.01,2013-04-05 19:17:00,
2013-04-05 14:22:00,70.3,39.9,29.59,SSW,199,3.1,3.1,33,0.00,,---,0.00,VWS V13.01,2013-04-05 19:22:00,
2013-04-05 14:27:00,70.3,39.9,29.56,SSE,159,0.0,0.0,33,0.00,,---,0.00,VWS V13.01,2013-04-05 19:27:00,
2013-04-05 14:33:00,70.3,39.9,29.56,WSW,245,5.8,5.8,33,0.00,,---,0.00,VWS V13.01,2013-04-05 19:33:00,
2013-04-05 14:38:00,70.3,39.9,29.56,WSW,238,4.0,4.0,33,0.00,,---,0.00,VWS V13.01,2013-04-05 19:38:00,
2013-04-05 14:43:00,70.3,39.9,29.56,WSW,251,3.6,3.6,33,0.00,,---,0.00,VWS V13.01,2013-04-05 19:43:00,
2013-04-05 14:48:00,70.2,40.5,29.56,WSW,251,3.6,3.6,34,0.00,,---,0.00,VWS V13.01,2013-04-05 19:48:00,
2013-04-05 14:53:00,70.2,40.5,29.56,WSW,251,3.6,3.6,34,0.00,,---,0.00,VWS V13.01,2013-04-05 19:53:00,
2013-04-05 14:58:00,70.2,40.5,29.56,WSW,242,0.0,0.0,34,0.00,,---,0.00,VWS V13.01,2013-04-05 19:58:00,
2013-04-05 15:02:00,70.2,40.5,29.56,SSE,163,2.7,2.7,34,0.00,,---,0.00,VWS V13.01,2013-04-05 20:02:00,
2013-04-05 15:08:00,70.2,40.5,29.56,SW,220,3.6,3.6,34,0.00,,---,0.00,VWS V13.01,2013-04-05 20:08:00,
2013-04-05 15:13:00,70.2,40.5,29.56,SW,220,3.6,3.6,34,0.00,,---,0.00,VWS V13.01,2013-04-05 20:13:00,
2013-04-05 15:18:00,70.2,40.5,29.56,WNW,290,4.0,4.0,34,0.00,,---,0.00,VWS V13.01,2013-04-05 20:18:00,
2013-04-05 15:23:00,69.4,39.9,29.56,WNW,290,4.0,4.0,34,0.00,,---,0.00,VWS V13.01,2013-04-05 20:23:00,
2013-04-05 15:28:00,69.4,39.9,29.56,WNW,290,4.0,4.0,34,0.00,,---,0.00,VWS V13.01,2013-04-05 20:28:00,
2013-04-05 15:33:00,69.4,39.9,29.53,SSE,147,6.3,6.3,34,0.00,,---,0.00,VWS V13.01,2013-04-05 20:33:00,
2013-04-05 15:38:00,69.4,39.9,29.53,SSE,147,6.3,6.3,34,0.00,,---,0.00,VWS V13.01,2013-04-05 20:38:00,
2013-04-05 15:43:00,69.4,39.9,29.53,SSE,147,6.3,6.3,34,0.00,,---,0.00,VWS V13.01,2013-04-05 20:43:00,
2013-04-05 15:48:00,69.4,39.9,29.53,SSE,147,6.3,6.3,34,0.00,,---,0.00,VWS V13.01,2013-04-05 20:48:00,
2013-04-05 15:53:00,69.4,39.9,29.53,SSE,147,6.3,6.3,34,0.00,,---,0.00,VWS V13.01,2013-04-05 20:53:00,
2013-04-05 15:58:00,69.4,39.9,29.53,SW,223,4.0,4.0,34,0.00,,---,0.00,VWS V13.01,2013-04-05 20:58:00,
2013-04-05 16:03:00,69.1,41.0,29.53,SW,223,4.0,4.0,36,0.00,,---,0.00,VWS V13.01,2013-04-05 21:03:00,
2013-04-05 16:08:00,69.1,41.0,29.53,SW,223,4.0,4.0,36,0.00,,---,0.00,VWS V13.01,2013-04-05 21:08:00,
2013-04-05 16:13:00,69.1,41.0,29.53,SW,223,4.0,4.0,36,0.00,,---,0.00,VWS V13.01,2013-04-05 21:13:00,
2013-04-05 16:18:00,68.7,40.0,29.53,SW,223,4.0,4.0,35,0.00,,---,0.00,VWS V13.01,2013-04-05 21:18:00,
2013-04-05 16:23:00,68.7,40.0,29.53,SW,223,4.0,4.0,35,0.00,,---,0.00,VWS V13.01,2013-04-05 21:23:00,
2013-04-05 16:28:00,68.7,40.0,29.53,SW,223,4.0,4.0,35,0.00,,---,0.00,VWS V13.01,2013-04-05 21:28:00,
2013-04-05 16:33:00,68.9,40.9,29.53,SSE,156,4.9,4.9,36,0.00,,---,0.00,VWS V13.01,2013-04-05 21:33:00,
2013-04-05 16:38:00,69.1,40.3,29.50,SSE,156,4.9,4.9,35,0.00,,---,0.00,VWS V13.01,2013-04-05 21:38:00,
2013-04-05 16:43:00,69.3,40.5,29.50,ESE,108,5.8,5.8,35,0.00,,---,0.00,VWS V13.01,2013-04-05 21:43:00,
2013-04-05 16:48:00,69.4,40.6,29.50,ESE,108,5.8,5.8,35,0.00,,---,0.00,VWS V13.01,2013-04-05 21:48:00,
2013-04-05 16:53:00,69.4,40.6,29.50,ESE,108,5.8,5.8,35,0.00,,---,0.00,VWS V13.01,2013-04-05 21:53:00,
2013-04-05 16:58:00,69.4,40.6,29.50,ESE,108,5.8,5.8,35,0.00,,---,0.00,VWS V13.01,2013-04-05 21:58:00,
2013-04-05 17:03:00,69.4,40.6,29.50,SSE,147,8.3,8.3,35,0.00,,---,0.00,VWS V13.01,2013-04-05 22:03:00,
2013-04-05 17:08:00,69.1,41.0,29.50,SE,146,4.0,8.3,36,0.00,,---,0.00,VWS V13.01,2013-04-05 22:08:00,
2013-04-05 17:13:00,69.1,41.0,29.50,SE,141,8.7,8.7,36,0.00,,---,0.00,VWS V13.01,2013-04-05 22:13:00,
2013-04-05 17:18:00,68.7,41.4,29.50,SE,141,8.7,8.7,37,0.00,,---,0.00,VWS V13.01,2013-04-05 22:18:00,
2013-04-05 17:23:00,68.4,40.4,29.50,SSE,152,5.4,5.4,36,0.00,,---,0.00,VWS V13.01,2013-04-05 22:23:00,
2013-04-05 17:28:00,68.4,40.4,29.50,SE,129,7.6,7.6,36,0.00,,---,0.00,VWS V13.01,2013-04-05 22:28:00,
2013-04-05 17:33:00,68.0,40.8,29.47,ENE,61,4.9,4.9,37,0.00,,---,0.00,VWS V13.01,2013-04-05 22:33:00,
2013-04-05 17:38:00,68.0,40.8,29.47,South,180,3.1,3.1,37,0.00,,---,0.00,VWS V13.01,2013-04-05 22:38:00,
2013-04-05 17:43:00,67.6,41.2,29.47,South,180,3.1,3.1,38,0.00,,---,0.00,VWS V13.01,2013-04-05 22:43:00,
2013-04-05 17:48:00,67.5,42.3,29.47,SE,146,4.0,4.0,40,0.00,,---,0.00,VWS V13.01,2013-04-05 22:48:00,
2013-04-05 17:53:00,67.5,42.3,29.47,SE,146,4.0,4.0,40,0.00,,---,0.00,VWS V13.01,2013-04-05 22:53:00,
2013-04-05 17:58:00,67.5,42.3,29.47,East,91,5.4,5.4,40,0.00,,---,0.00,VWS V13.01,2013-04-05 22:58:00,
2013-04-05 18:03:00,67.5,42.3,29.47,SSE,160,0.0,0.0,40,0.00,,---,0.00,VWS V13.01,2013-04-05 23:03:00,
2013-04-05 18:08:00,67.5,42.3,29.47,SE,143,5.4,5.4,40,0.00,,---,0.00,VWS V13.01,2013-04-05 23:08:00,
2013-04-05 18:13:00,67.6,41.8,29.47,SSW,197,2.2,2.2,39,0.00,,---,0.00,VWS V13.01,2013-04-05 23:13:00,
2013-04-05 18:18:00,67.6,41.8,29.47,SSW,197,2.2,2.2,39,0.00,,---,0.00,VWS V13.01,2013-04-05 23:18:00,
2013-04-05 18:23:00,67.6,41.8,29.47,SSE,148,2.7,2.7,39,0.00,,---,0.00,VWS V13.01,2013-04-05 23:23:00,
2013-04-05 18:28:00,67.3,42.2,29.47,South,170,4.0,4.0,40,0.00,,---,0.00,VWS V13.01,2013-04-05 23:28:00,
2013-04-05 18:33:00,67.3,42.2,29.47,SSE,160,5.8,5.8,40,0.00,,---,0.00,VWS V13.01,2013-04-05 23:33:00,
2013-04-05 18:38:00,67.3,42.2,29.47,SE,142,4.9,4.9,40,0.00,,---,0.00,VWS V13.01,2013-04-05 23:38:00,
2013-04-05 18:43:00,66.9,41.8,29.47,SSE,157,2.7,2.7,40,0.00,,---,0.00,VWS V13.01,2013-04-05 23:43:00,
2013-04-05 18:48:00,66.6,42.2,29.47,SSE,155,4.0,4.0,41,0.00,,---,0.00,VWS V13.01,2013-04-05 23:48:00,
2013-04-05 18:53:00,66.6,42.2,29.47,SSE,166,6.3,6.3,41,0.00,,---,0.00,VWS V13.01,2013-04-05 23:53:00,
2013-04-05 18:58:00,66.6,42.2,29.47,SE,136,6.3,6.3,41,0.00,,---,0.00,VWS V13.01,2013-04-05 23:58:00,
2013-04-05 19:03:00,65.7,42.6,29.47,SE,136,6.3,6.3,43,0.00,,---,0.00,VWS V13.01,2013-04-06 00:03:00,
2013-04-05 19:08:00,65.7,42.6,29.47,South,170,7.6,7.6,43,0.00,,---,0.00,VWS V13.01,2013-04-06 00:08:00,
2013-04-05 19:13:00,65.5,42.4,29.47,South,170,7.6,7.6,43,0.00,,---,0.00,VWS V13.01,2013-04-06 00:13:00,
2013-04-05 19:18:00,65.5,42.4,29.47,SE,142,3.6,3.6,43,0.00,,---,0.00,VWS V13.01,2013-04-06 00:18:00,
2013-04-05 19:23:00,65.5,42.4,29.47,SE,142,3.6,3.6,43,0.00,,---,0.00,VWS V13.01,2013-04-06 00:23:00,
2013-04-05 19:28:00,65.5,42.4,29.47,SE,135,2.7,2.7,43,0.00,,---,0.00,VWS V13.01,2013-04-06 00:28:00,
2013-04-05 19:33:00,64.6,42.2,29.47,SE,135,2.7,2.7,44,0.00,,---,0.00,VWS V13.01,2013-04-06 00:33:00,
2013-04-05 19:38:00,64.6,42.2,29.47,SE,135,2.7,2.7,44,0.00,,---,0.00,VWS V13.01,2013-04-06 00:38:00,
2013-04-05 19:43:00,64.2,42.5,29.47,SSE,149,4.9,4.9,45,0.00,,---,0.00,VWS V13.01,2013-04-06 00:43:00,
2013-04-05 19:48:00,64.2,42.5,29.47,SSE,149,4.9,4.9,45,0.00,,---,0.00,VWS V13.01,2013-04-06 00:48:00,
2013-04-05 19:53:00,64.2,42.5,29.47,SE,130,2.7,2.7,45,0.00,,---,0.00,VWS V13.01,2013-04-06 00:53:00,
2013-04-05 19:58:00,63.7,42.5,29.47,SE,130,2.7,2.7,46,0.00,,---,0.00,VWS V13.01,2013-04-06 00:58:00,
2013-04-05 20:03:00,63.7,42.5,29.47,SE,136,5.4,5.4,46,0.00,,---,0.00,VWS V13.01,2013-04-06 01:03:00,
2013-04-05 20:08:00,63.7,42.5,29.47,SE,136,5.4,5.4,46,0.00,,---,0.00,VWS V13.01,2013-04-06 01:08:00,
2013-04-05 20:13:00,63.7,42.5,29.47,SSE,168,4.0,4.0,46,0.00,,---,0.00,VWS V13.01,2013-04-06 01:13:00,
2013-04-05 20:18:00,62.8,42.8,29.47,SSE,168,4.0,4.0,48,0.00,,---,0.00,VWS V13.01,2013-04-06 01:18:00,
2013-04-05 20:23:00,62.8,42.8,29.47,SSE,155,2.7,2.7,48,0.00,,---,0.00,VWS V13.01,2013-04-06 01:23:00,
2013-04-05 20:28:00,62.8,42.8,29.47,SSE,155,2.7,2.7,48,0.00,,---,0.00,VWS V13.01,2013-04-06 01:28:00,
2013-04-05 20:33:00,62.8,42.8,29.47,SSE,155,2.7,2.7,48,0.00,,---,0.00,VWS V13.01,2013-04-06 01:33:00,
2013-04-05 20:38:00,62.8,42.8,29.47,SE,146,5.8,5.8,48,0.00,,---,0.00,VWS V13.01,2013-04-06 01:38:00,
2013-04-05 20:43:00,62.2,42.9,29.47,SE,146,5.8,5.8,49,0.00,,---,0.00,VWS V13.01,2013-04-06 01:43:00,
2013-04-05 20:48:00,62.2,42.9,29.47,SE,125,2.7,2.7,49,0.00,,---,0.00,VWS V13.01,2013-04-06 01:48:00,
2013-04-05 20:53:00,62.2,42.9,29.47,SE,125,2.7,2.7,49,0.00,,---,0.00,VWS V13.01,2013-04-06 01:53:00,
2013-04-05 20:58:00,62.1,42.7,29.47,East,92,3.1,3.1,49,0.00,,---,0.00,VWS V13.01,2013-04-06 01:58:00,
2013-04-05 21:03:00,62.1,42.7,29.44,East,92,3.1,3.1,49,0.00,,---,0.00,VWS V13.01,2013-04-06 02:03:00,
2013-04-05 21:08:00,61.7,42.9,29.44,East,92,3.1,3.1,50,0.00,,---,0.00,VWS V13.01,2013-04-06 02:08:00,
2013-04-05 21:13:00,61.7,42.9,29.44,East,92,3.1,3.1,50,0.00,,---,0.00,VWS V13.01,2013-04-06 02:13:00,
2013-04-05 21:18:00,61.7,42.9,29.44,SE,135,5.4,5.4,50,0.00,,---,0.00,VWS V13.01,2013-04-06 02:18:00,
2013-04-05 21:23:00,61.7,42.9,29.44,SE,135,5.4,5.4,50,0.00,,---,0.00,VWS V13.01,2013-04-06 02:23:00,
2013-04-05 21:28:00,61.7,42.9,29.44,SE,135,5.4,5.4,50,0.00,,---,0.00,VWS V13.01,2013-04-06 02:28:00,
2013-04-05 21:33:00,61.0,43.8,29.44,ESE,118,0.0,0.0,53,0.00,,---,0.00,VWS V13.01,2013-04-06 02:33:00,
2013-04-05 21:38:00,61.0,43.8,29.47,ESE,118,0.0,0.0,53,0.00,,---,0.00,VWS V13.01,2013-04-06 02:38:00,
2013-04-05 21:43:00,61.0,43.8,29.47,ESE,118,0.0,0.0,53,0.00,,---,0.00,VWS V13.01,2013-04-06 02:43:00,